createdAt,value
2022-08-12T00:01:14.452Z,11.40
2022-08-12T00:04:01.026Z,8.60
2022-08-12T00:06:47.562Z,9.82
2022-08-12T00:09:34.228Z,11.30
2022-08-12T00:12:21.342Z,8.50
2022-08-12T00:15:08.129Z,13.57
2022-08-12T00:17:54.858Z,11.15
2022-08-12T00:20:40.949Z,9.07
2022-08-12T00:23:27.005Z,10.93
2022-08-12T00:26:23.343Z,11.90
2022-08-12T00:29:12.007Z,8.15
2022-08-12T00:32:00.582Z,9.73
2022-08-12T00:34:49.665Z,7.57
2022-08-12T00:37:40.071Z,8.65
2022-08-12T00:40:31.894Z,13.07
2022-08-12T00:43:01.539Z,9.95
2022-08-12T00:45:49.000Z,8.55
2022-08-12T00:48:17.431Z,13.20
2022-08-12T00:50:47.644Z,13.57
2022-08-12T00:55:47.871Z,11.48
2022-08-12T00:58:23.677Z,7.97
2022-08-12T01:00:52.352Z,10.93
2022-08-12T01:03:21.031Z,8.77
2022-08-12T01:06:08.185Z,13.15
2022-08-12T01:08:54.346Z,11.80
2022-08-12T01:11:32.873Z,12.48
2022-08-12T01:14:02.300Z,11.43
2022-08-12T01:16:30.585Z,11.25
2022-08-12T01:18:58.407Z,14.02
2022-08-12T01:21:52.410Z,12.13
2022-08-12T01:24:58.519Z,9.30
2022-08-12T01:27:28.896Z,14.65
2022-08-12T01:29:58.843Z,12.77
2022-08-12T01:32:28.782Z,11.73
2022-08-12T01:35:17.693Z,11.60
2022-08-12T01:37:58.406Z,11.52
2022-08-12T01:40:37.997Z,10.43
2022-08-12T01:43:09.879Z,9.93
2022-08-12T01:45:52.482Z,8.43
2022-08-12T01:48:50.013Z,10.75
2022-08-12T01:52:14.691Z,9.00
2022-08-12T01:54:23.905Z,10.68
2022-08-12T01:56:52.692Z,10.70
2022-08-12T01:59:50.202Z,9.50
2022-08-12T02:02:28.111Z,9.48
2022-08-12T02:06:01.494Z,11.95
2022-08-12T02:09:05.603Z,10.73
2022-08-12T02:11:41.601Z,12.45
2022-08-12T02:14:37.307Z,7.70
2022-08-12T02:17:55.104Z,7.88
2022-08-12T02:20:43.864Z,15.57
2022-08-12T02:23:15.304Z,11.48
2022-08-12T02:25:46.447Z,9.88
2022-08-12T02:28:14.477Z,10.60
2022-08-12T02:30:42.722Z,9.10
2022-08-12T02:33:11.893Z,7.60
2022-08-12T02:35:40.086Z,10.45
2022-08-12T02:38:12.514Z,8.27
2022-08-12T02:40:45.501Z,15.15
2022-08-12T02:43:21.779Z,11.30
2022-08-12T02:45:56.973Z,14.80
2022-08-12T02:48:43.082Z,12.27
2022-08-12T02:51:13.258Z,8.75
2022-08-12T02:53:45.121Z,9.98
2022-08-12T02:56:31.188Z,10.02
2022-08-12T02:59:01.227Z,9.38
2022-08-12T03:01:34.115Z,9.37
2022-08-12T03:04:20.353Z,14.35
2022-08-12T03:07:16.635Z,9.48
2022-08-12T03:10:05.410Z,10.90
2022-08-12T03:12:47.453Z,9.93
2022-08-12T03:15:22.449Z,12.13
2022-08-12T03:18:25.702Z,10.57
2022-08-12T03:20:41.208Z,10.75
2022-08-12T03:23:28.582Z,11.07
2022-08-12T03:26:02.725Z,10.43
2022-08-12T03:28:51.253Z,8.90
2022-08-12T03:31:32.521Z,12.85
2022-08-12T03:34:10.430Z,12.65
2022-08-12T03:36:39.998Z,15.68
2022-08-12T03:39:35.317Z,11.32
2022-08-12T03:42:30.494Z,14.45
2022-08-12T03:45:52.657Z,11.75
2022-08-12T03:48:39.514Z,11.18
2022-08-12T03:51:27.296Z,10.63
2022-08-12T03:54:14.194Z,11.63
2022-08-12T03:57:00.255Z,10.52
2022-08-12T03:59:46.236Z,11.02
2022-08-12T04:02:18.005Z,9.65
2022-08-12T04:04:46.400Z,10.07
2022-08-12T04:07:16.205Z,11.13
2022-08-12T04:09:46.208Z,10.15
2022-08-12T04:12:33.441Z,10.50
2022-08-12T04:15:02.583Z,11.52
2022-08-12T04:17:32.067Z,9.35
2022-08-12T04:19:59.863Z,9.73
2022-08-12T04:22:30.502Z,12.13
2022-08-12T04:27:31.453Z,15.00
2022-08-12T04:30:30.843Z,11.65
2022-08-12T04:32:52.464Z,9.35
2022-08-12T04:35:22.370Z,15.10
2022-08-12T04:37:59.937Z,13.32
2022-08-12T04:40:31.709Z,14.13
2022-08-12T04:43:03.182Z,14.85
2022-08-12T04:45:33.149Z,11.93
2022-08-12T04:48:02.141Z,12.55
2022-08-12T04:50:35.975Z,12.50
2022-08-12T04:53:08.290Z,11.32
2022-08-12T04:55:38.600Z,11.00
2022-08-12T04:58:07.827Z,13.55
2022-08-12T05:00:37.976Z,13.07
2022-08-12T05:03:06.633Z,11.80
2022-08-12T05:05:36.427Z,11.30
2022-08-12T05:08:07.919Z,13.80
2022-08-12T05:10:36.025Z,14.60
2022-08-12T05:13:19.339Z,12.60
2022-08-12T05:16:02.521Z,15.93
2022-08-12T05:18:39.772Z,10.68
2022-08-12T05:21:10.609Z,12.70
2022-08-12T05:23:39.788Z,10.30
2022-08-12T05:26:07.979Z,15.05
2022-08-12T05:28:36.671Z,10.38
2022-08-12T05:31:04.999Z,12.98
2022-08-12T05:33:41.000Z,12.68
2022-08-12T05:36:13.640Z,12.20
2022-08-12T05:38:59.456Z,12.32
2022-08-12T05:41:35.264Z,13.52
2022-08-12T05:44:08.756Z,14.80
2022-08-12T05:46:37.452Z,15.10
2022-08-12T05:49:06.309Z,11.52
2022-08-12T05:51:40.071Z,12.40
2022-08-12T05:54:11.246Z,12.32
2022-08-12T05:56:40.752Z,13.05
2022-08-12T05:59:11.469Z,16.73
2022-08-12T06:04:28.307Z,10.52
2022-08-12T06:06:56.204Z,13.07
2022-08-12T06:09:25.626Z,14.57
2022-08-12T06:12:04.448Z,13.52
2022-08-12T06:14:37.070Z,14.85
2022-08-12T06:17:09.038Z,19.58
2022-08-12T06:20:28.564Z,13.40
2022-08-12T06:22:28.378Z,15.32
2022-08-12T06:27:24.138Z,10.88
2022-08-12T06:30:08.582Z,14.48
2022-08-12T06:32:51.964Z,13.40
2022-08-12T06:35:48.208Z,14.70
2022-08-12T06:38:22.369Z,14.85
2022-08-12T06:41:13.134Z,16.50
2022-08-12T06:44:05.725Z,14.90
2022-08-12T06:46:31.666Z,22.10
2022-08-12T06:49:00.925Z,17.40
2022-08-12T06:51:30.525Z,16.45
2022-08-12T06:54:00.032Z,17.17
2022-08-12T06:56:46.350Z,16.58
2022-08-12T06:59:15.892Z,19.17
2022-08-12T07:01:51.230Z,14.32
2022-08-12T07:04:37.931Z,15.85
2022-08-12T07:07:08.380Z,19.27
2022-08-12T07:10:03.719Z,19.15
2022-08-12T07:12:26.981Z,18.00
2022-08-12T07:15:01.988Z,17.90
2022-08-12T07:17:35.822Z,18.83
2022-08-12T07:20:29.710Z,19.85
2022-08-12T07:22:59.527Z,16.83
2022-08-12T07:25:31.021Z,16.60
2022-08-12T07:28:17.109Z,18.02
2022-08-12T07:30:48.617Z,21.70
2022-08-12T07:33:18.075Z,18.35
2022-08-12T07:35:48.031Z,24.45
2022-08-12T07:38:30.486Z,18.30
2022-08-12T07:41:02.545Z,24.83
2022-08-12T07:43:31.911Z,18.10
2022-08-12T07:46:00.454Z,18.00
2022-08-12T07:48:28.254Z,15.90
2022-08-12T07:50:55.906Z,18.73
2022-08-12T07:53:23.814Z,14.88
2022-08-12T07:55:51.550Z,13.68
2022-08-12T07:58:19.093Z,17.45
2022-08-12T08:00:46.561Z,18.90
2022-08-12T08:03:15.238Z,14.98
2022-08-12T08:05:49.720Z,16.55
2022-08-12T08:08:20.665Z,16.73
2022-08-12T08:13:17.438Z,17.42
2022-08-12T08:16:02.469Z,19.52
2022-08-12T08:18:31.413Z,15.30
2022-08-12T08:20:59.197Z,17.75
2022-08-12T08:23:56.047Z,17.80
2022-08-12T08:26:25.968Z,17.90
2022-08-12T08:28:53.917Z,15.77
2022-08-12T08:31:21.582Z,17.35
2022-08-12T08:34:09.613Z,14.00
2022-08-12T08:36:37.546Z,13.57
2022-08-12T08:39:09.735Z,24.05
2022-08-12T08:42:15.824Z,16.00
2022-08-12T08:44:43.487Z,17.95
2022-08-12T08:47:12.760Z,10.25
2022-08-12T08:49:40.627Z,18.08
2022-08-12T08:52:10.985Z,12.23
2022-08-12T08:54:38.804Z,10.45
2022-08-12T08:57:08.460Z,13.65
2022-08-12T08:59:36.407Z,18.83
2022-08-12T09:02:04.401Z,13.50
2022-08-12T09:05:13.156Z,14.88
2022-08-12T09:07:52.027Z,15.10
2022-08-12T09:10:15.506Z,14.07
2022-08-12T09:13:22.913Z,11.57
2022-08-12T09:15:55.955Z,11.38
2022-08-12T09:18:30.823Z,7.90
2022-08-12T09:20:58.728Z,6.70
2022-08-12T09:24:00.869Z,7.78
2022-08-12T09:26:19.743Z,13.32
2022-08-12T09:32:06.720Z,11.38
2022-08-12T09:34:29.326Z,7.10
2022-08-12T09:37:02.996Z,8.23
2022-08-12T09:40:01.985Z,9.68
2022-08-12T09:43:15.202Z,8.73
2022-08-12T09:46:12.116Z,8.80
2022-08-12T09:48:34.915Z,8.13
2022-08-12T09:51:17.131Z,11.93
2022-08-12T09:54:06.837Z,14.10
2022-08-12T09:56:58.634Z,10.63
2022-08-12T10:00:12.783Z,8.80
2022-08-12T10:02:43.278Z,11.13
2022-08-12T10:05:05.214Z,7.90
2022-08-12T10:07:40.048Z,11.95
2022-08-12T10:10:24.658Z,9.68
2022-08-12T10:13:34.832Z,9.00
2022-08-12T10:16:05.155Z,11.20
2022-08-12T10:18:35.483Z,13.85
2022-08-12T10:23:40.333Z,9.45
2022-08-12T10:26:37.254Z,14.52
2022-08-12T10:30:37.715Z,9.07
2022-08-12T10:32:42.859Z,12.60
2022-08-12T10:35:09.728Z,7.35
2022-08-12T10:38:35.453Z,9.85
2022-08-12T10:40:31.439Z,9.82
2022-08-12T10:43:19.223Z,9.75
2022-08-12T10:45:49.318Z,9.95
2022-08-12T10:48:33.277Z,9.43
2022-08-12T10:51:51.538Z,7.90
2022-08-12T10:56:35.318Z,8.32
2022-08-12T10:59:10.861Z,17.38
2022-08-12T11:04:18.312Z,6.55
2022-08-12T11:04:44.162Z,9.80
2022-08-12T11:08:34.205Z,8.77
2022-08-12T11:10:05.548Z,11.88
2022-08-12T11:12:54.697Z,6.82
2022-08-12T11:15:33.004Z,6.38
2022-08-12T11:18:11.995Z,9.25
2022-08-12T11:20:47.824Z,6.75
2022-08-12T11:23:25.994Z,7.35
2022-08-12T11:26:05.892Z,11.07
2022-08-12T11:28:37.687Z,4.22
2022-08-12T11:31:11.990Z,6.78
2022-08-12T11:34:04.454Z,10.60
2022-08-12T11:36:29.293Z,6.78
2022-08-12T11:38:58.685Z,6.63
2022-08-12T11:41:34.543Z,10.80
2022-08-12T11:44:35.241Z,13.63
2022-08-12T11:46:53.089Z,5.55
2022-08-12T11:49:31.693Z,5.95
2022-08-12T11:52:04.205Z,5.87
2022-08-12T11:54:50.971Z,6.53
2022-08-12T11:58:07.263Z,9.18
2022-08-12T12:02:55.228Z,2.83
2022-08-12T12:05:22.843Z,4.20
2022-08-12T12:08:38.697Z,7.57
2022-08-12T12:10:43.690Z,2.90
2022-08-12T12:16:01.054Z,6.63
2022-08-12T12:18:34.854Z,5.10
2022-08-12T12:21:08.328Z,5.97
2022-08-12T12:23:36.696Z,7.70
2022-08-12T12:26:09.889Z,8.52
2022-08-12T12:28:55.094Z,4.60
2022-08-12T12:32:10.557Z,5.22
2022-08-12T12:34:12.174Z,6.72
2022-08-12T12:36:58.362Z,3.92
2022-08-12T12:39:28.593Z,4.32
2022-08-12T12:42:45.604Z,5.20
2022-08-12T12:44:51.074Z,7.25
2022-08-12T12:47:30.098Z,7.45
2022-08-12T12:49:57.858Z,5.25
2022-08-12T12:52:27.130Z,4.38
2022-08-12T12:54:55.769Z,7.28
2022-08-12T12:57:58.911Z,5.88
2022-08-12T13:00:15.855Z,5.80
2022-08-12T13:02:53.724Z,7.07
2022-08-12T13:05:28.290Z,5.93
2022-08-12T13:08:01.784Z,7.25
2022-08-12T13:10:37.063Z,16.70
2022-08-12T13:14:07.500Z,6.10
2022-08-12T13:15:58.969Z,5.10
2022-08-12T13:18:33.508Z,8.18
2022-08-12T13:21:02.452Z,8.48
2022-08-12T13:23:37.338Z,5.78
2022-08-12T13:26:05.464Z,5.82
2022-08-12T13:28:33.176Z,5.22
2022-08-12T13:31:00.757Z,3.28
2022-08-12T13:33:29.399Z,6.25
2022-08-12T13:36:18.938Z,7.22
2022-08-12T13:38:54.283Z,4.38
2022-08-12T13:41:34.310Z,8.13
2022-08-12T13:46:41.027Z,7.20
2022-08-12T13:49:20.481Z,5.65
2022-08-12T13:52:01.700Z,6.63
2022-08-12T13:54:29.719Z,6.93
2022-08-12T13:56:57.300Z,5.47
2022-08-12T13:59:26.729Z,4.70
2022-08-12T14:01:56.638Z,11.13
2022-08-12T14:04:24.879Z,5.28
2022-08-12T14:06:53.930Z,6.55
2022-08-12T14:09:21.422Z,8.70
2022-08-12T14:11:54.809Z,8.77
2022-08-12T14:14:31.448Z,4.45
2022-08-12T14:17:05.169Z,6.10
2022-08-12T14:19:36.060Z,7.78
2022-08-12T14:22:05.773Z,6.78
2022-08-12T14:24:40.629Z,5.78
2022-08-12T14:27:11.086Z,8.23
2022-08-12T14:30:05.419Z,6.15
2022-08-12T14:32:37.092Z,6.07
2022-08-12T14:35:09.511Z,5.20
2022-08-12T14:37:57.662Z,8.35
2022-08-12T14:40:29.050Z,4.10
2022-08-12T14:42:58.743Z,6.10
2022-08-12T14:48:18.732Z,9.73
2022-08-12T14:52:10.257Z,6.40
2022-08-12T14:55:18.204Z,3.90
2022-08-12T14:59:56.416Z,9.07
2022-08-12T15:02:21.357Z,7.07
2022-08-12T15:04:52.374Z,5.65
2022-08-12T15:07:32.724Z,3.88
2022-08-12T15:10:02.379Z,6.93
2022-08-12T15:12:33.591Z,5.38
2022-08-12T15:15:01.104Z,4.05
2022-08-12T15:20:31.567Z,8.60
2022-08-12T15:22:57.848Z,12.60
2022-08-12T15:25:30.173Z,9.63
2022-08-12T15:28:20.467Z,6.50
2022-08-12T15:30:52.221Z,9.98
2022-08-12T15:33:24.153Z,3.53
2022-08-12T15:35:54.038Z,7.90
2022-08-12T15:38:31.359Z,6.47
2022-08-12T15:41:01.026Z,10.33
2022-08-12T15:44:07.767Z,11.40
2022-08-12T15:46:25.543Z,4.78
2022-08-12T15:48:55.491Z,4.55
2022-08-12T15:51:59.627Z,4.93
2022-08-12T15:54:35.041Z,4.65
2022-08-12T15:57:07.668Z,4.10
2022-08-12T16:00:00.710Z,12.18
2022-08-12T16:02:29.868Z,7.43
2022-08-12T16:04:58.214Z,4.32
2022-08-12T16:07:32.601Z,6.88
2022-08-12T16:10:08.382Z,6.07
2022-08-12T16:12:54.693Z,4.25
2022-08-12T16:15:29.522Z,5.18
2022-08-12T16:18:25.962Z,13.07
2022-08-12T16:20:52.185Z,9.10
2022-08-12T16:23:36.060Z,5.80
2022-08-12T16:26:15.282Z,5.13
2022-08-12T16:28:47.329Z,8.65
2022-08-12T16:31:23.333Z,6.68
2022-08-12T16:33:58.840Z,6.07
2022-08-12T16:36:29.887Z,10.30
2022-08-12T16:39:01.105Z,8.88
2022-08-12T16:41:39.817Z,7.93
2022-08-12T16:44:10.916Z,8.25
2022-08-12T16:46:38.496Z,11.13
2022-08-12T16:49:09.226Z,10.25
2022-08-12T16:51:46.434Z,11.90
2022-08-12T16:54:17.141Z,7.60
2022-08-12T16:56:54.448Z,5.55
2022-08-12T16:59:23.859Z,4.72
2022-08-12T17:01:51.983Z,7.72
2022-08-12T17:06:52.597Z,11.90
2022-08-12T17:09:20.310Z,6.82
2022-08-12T17:11:49.614Z,4.15
2022-08-12T17:14:22.977Z,4.55
2022-08-12T17:16:55.376Z,5.32
2022-08-12T17:20:30.505Z,10.13
2022-08-12T17:22:14.997Z,3.30
2022-08-12T17:24:54.601Z,4.90
2022-08-12T17:27:25.637Z,8.43
2022-08-12T17:30:02.679Z,12.23
2022-08-12T17:32:35.055Z,4.47
2022-08-12T17:35:21.398Z,8.60
2022-08-12T17:37:50.804Z,10.10
2022-08-12T17:40:36.140Z,6.30
2022-08-12T17:43:54.683Z,9.80
2022-08-12T17:45:58.957Z,10.80
2022-08-12T17:48:34.707Z,5.47
2022-08-12T17:51:15.473Z,7.22
2022-08-12T17:54:06.049Z,7.03
2022-08-12T17:56:37.397Z,8.50
2022-08-12T17:59:07.379Z,10.45
2022-08-12T18:04:21.328Z,6.43
2022-08-12T18:06:52.148Z,4.70
2022-08-12T18:09:21.942Z,6.75
2022-08-12T18:12:12.144Z,8.40
2022-08-12T18:14:41.337Z,7.32
2022-08-12T18:17:17.947Z,7.70
2022-08-12T18:20:05.481Z,9.23
2022-08-12T18:22:34.122Z,7.05
2022-08-12T18:25:06.534Z,4.45
2022-08-12T18:27:43.823Z,6.18
2022-08-12T18:30:21.043Z,7.97
2022-08-12T18:33:05.207Z,10.55
2022-08-12T18:35:53.050Z,8.80
2022-08-12T18:38:24.776Z,8.73
2022-08-12T18:41:21.089Z,10.02
2022-08-12T18:44:09.671Z,6.90
2022-08-12T18:46:47.528Z,6.30
2022-08-12T18:49:30.778Z,8.13
2022-08-12T18:52:04.864Z,5.90
2022-08-12T18:54:49.159Z,6.72
2022-08-12T18:58:06.067Z,7.72
2022-08-12T19:00:22.154Z,9.63
2022-08-12T19:02:53.447Z,12.43
2022-08-12T19:05:45.798Z,11.30
2022-08-12T19:08:13.316Z,14.13
2022-08-12T19:10:50.275Z,13.27
2022-08-12T19:13:39.860Z,8.95
2022-08-12T19:16:10.849Z,9.65
2022-08-12T19:18:40.926Z,8.05
2022-08-12T19:21:16.344Z,6.70
2022-08-12T19:24:08.578Z,7.72
2022-08-12T19:26:37.620Z,8.13
2022-08-12T19:29:07.621Z,10.02
2022-08-12T19:31:57.153Z,7.90
2022-08-12T19:35:53.818Z,7.15
2022-08-12T19:38:03.230Z,8.23
2022-08-12T19:40:31.007Z,6.43
2022-08-12T19:43:20.395Z,8.23
2022-08-12T19:45:57.806Z,9.70
2022-08-12T19:48:30.720Z,9.13
2022-08-12T19:51:09.378Z,7.45
2022-08-12T19:53:57.445Z,8.88
2022-08-12T19:56:29.997Z,6.15
2022-08-12T19:59:18.774Z,13.65
2022-08-12T20:02:02.355Z,9.52
2022-08-12T20:04:33.014Z,20.33
2022-08-12T20:07:01.061Z,13.15
2022-08-12T20:09:28.710Z,11.25
2022-08-12T20:12:15.042Z,8.32
2022-08-12T20:14:48.413Z,9.82
2022-08-12T20:17:16.602Z,9.27
2022-08-12T20:20:16.994Z,7.93
2022-08-12T20:22:43.001Z,8.73
2022-08-12T20:25:13.216Z,6.50
2022-08-12T20:28:03.174Z,10.00
2022-08-12T20:30:52.343Z,8.18
2022-08-12T20:33:32.421Z,9.05
2022-08-12T20:36:42.936Z,6.88
2022-08-12T20:39:17.559Z,9.98
2022-08-12T20:41:58.872Z,11.23
2022-08-12T20:44:27.487Z,10.45
2022-08-12T20:47:11.836Z,9.52
2022-08-12T20:49:55.492Z,9.48
2022-08-12T20:52:41.634Z,12.98
2022-08-12T20:55:15.848Z,8.75
2022-08-12T20:58:01.849Z,9.90
2022-08-12T21:00:30.971Z,10.85
2022-08-12T21:03:18.541Z,7.80
2022-08-12T21:06:11.740Z,11.80
2022-08-12T21:08:43.364Z,10.38
2022-08-12T21:11:11.158Z,12.88
2022-08-12T21:13:41.775Z,8.57
2022-08-12T21:16:10.499Z,11.25
2022-08-12T21:18:39.091Z,14.32
2022-08-12T21:21:06.904Z,10.02
2022-08-12T21:23:52.390Z,10.95
2022-08-12T21:26:24.432Z,13.23
2022-08-12T21:29:01.387Z,12.50
2022-08-12T21:32:38.077Z,12.75
2022-08-12T21:34:29.129Z,23.10
2022-08-12T21:37:13.059Z,28.33
2022-08-12T21:39:52.270Z,19.17
2022-08-12T21:42:20.948Z,15.43
2022-08-12T21:45:46.456Z,9.20
2022-08-12T21:47:43.962Z,10.98
2022-08-12T21:50:13.935Z,9.60
2022-08-12T21:52:42.485Z,12.95
2022-08-12T21:55:19.761Z,14.85
2022-08-12T21:57:54.617Z,12.45
2022-08-12T22:00:35.060Z,14.32
2022-08-12T22:04:03.023Z,16.17
2022-08-12T22:06:26.269Z,15.48
2022-08-12T22:09:02.420Z,22.42
2022-08-12T22:11:41.513Z,19.50
2022-08-12T22:14:21.584Z,17.10
2022-08-12T22:16:54.337Z,19.87
2022-08-12T22:19:22.874Z,16.85
2022-08-12T22:21:54.588Z,13.77
2022-08-12T22:24:26.882Z,19.55
2022-08-12T22:27:31.493Z,19.42
2022-08-12T22:30:16.696Z,22.08
2022-08-12T22:32:49.972Z,18.90
2022-08-12T22:35:55.376Z,20.42
2022-08-12T22:38:26.302Z,26.23
2022-08-12T22:41:03.593Z,24.60
2022-08-12T22:43:59.795Z,18.45
2022-08-12T22:46:52.590Z,18.60
2022-08-12T22:49:37.094Z,17.90
2022-08-12T22:52:18.685Z,16.02
2022-08-12T22:55:02.853Z,14.13
2022-08-12T22:57:53.817Z,14.27
2022-08-12T23:00:24.667Z,16.55
2022-08-12T23:03:02.714Z,17.33
2022-08-12T23:05:36.722Z,16.05
2022-08-12T23:08:23.241Z,16.95
2022-08-12T23:10:51.590Z,15.32
2022-08-12T23:13:43.223Z,19.23
2022-08-12T23:16:28.501Z,14.75
2022-08-12T23:19:01.584Z,19.60
2022-08-12T23:22:06.603Z,22.85
2022-08-12T23:24:35.565Z,19.13
2022-08-12T23:27:23.080Z,14.88
2022-08-12T23:30:17.809Z,19.55
2022-08-12T23:32:40.875Z,19.90
2022-08-12T23:35:08.745Z,15.02
2022-08-12T23:37:47.609Z,20.40
2022-08-12T23:40:24.400Z,17.38
2022-08-12T23:45:31.493Z,12.55
2022-08-12T23:48:01.383Z,17.35
2022-08-12T23:50:34.471Z,17.50
2022-08-12T23:53:22.670Z,24.52
2022-08-12T23:55:50.743Z,15.45
2022-08-12T23:58:25.716Z,17.83
